createdAt,value
2023-01-30T00:01:39.388Z,99868.69
2023-01-30T00:04:06.443Z,99875.94
2023-01-30T00:06:33.836Z,99871.59
2023-01-30T00:09:02.063Z,99872.63
2023-01-30T00:11:30.180Z,99865.59
2023-01-30T00:13:57.180Z,99863.94
2023-01-30T00:16:24.138Z,99866.63
2023-01-30T00:18:51.223Z,99888.13
2023-01-30T00:21:18.516Z,99892.88
2023-01-30T00:23:45.846Z,99888.53
2023-01-30T00:26:14.260Z,99903.03
2023-01-30T00:28:42.431Z,99909.44
2023-01-30T00:31:09.767Z,99910.25
2023-01-30T00:33:37.994Z,99913.31
2023-01-30T00:36:05.788Z,99909.81
2023-01-30T00:38:32.698Z,99901.28
2023-01-30T00:40:59.760Z,99913.91
2023-01-30T00:43:47.415Z,99916.59
2023-01-30T00:46:38.778Z,99916.78
2023-01-30T00:49:05.745Z,99919.06
2023-01-30T00:51:32.636Z,99918.41
2023-01-30T00:53:59.488Z,99913.22
2023-01-30T00:56:26.379Z,99918.00
2023-01-30T00:58:54.564Z,99911.97
2023-01-30T01:01:21.402Z,99923.75
2023-01-30T01:03:49.494Z,99938.25
2023-01-30T01:06:16.479Z,99922.31
2023-01-30T01:08:43.382Z,99918.56
2023-01-30T01:11:10.700Z,99912.78
2023-01-30T01:13:37.467Z,99901.19
2023-01-30T01:16:06.381Z,99920.19
2023-01-30T01:18:33.771Z,99920.00
2023-01-30T01:21:00.597Z,99903.06
2023-01-30T01:23:27.440Z,99898.69
2023-01-30T01:25:55.265Z,99886.06
2023-01-30T01:28:22.333Z,99866.63
2023-01-30T01:30:49.239Z,99863.94
2023-01-30T01:33:17.513Z,99874.06
2023-01-30T01:35:44.348Z,99876.09
2023-01-30T01:38:11.152Z,99858.50
2023-01-30T01:40:58.197Z,99862.66
2023-01-30T01:43:25.872Z,99861.19
2023-01-30T01:45:57.514Z,99862.25
2023-01-30T01:48:31.021Z,99854.38
2023-01-30T01:51:02.965Z,99857.06
2023-01-30T01:53:35.415Z,99846.31
2023-01-30T01:56:04.503Z,99839.28
2023-01-30T01:58:36.115Z,99838.25
2023-01-30T02:01:03.440Z,99840.31
2023-01-30T02:03:37.773Z,99839.47
2023-01-30T02:06:07.406Z,99830.38
2023-01-30T02:08:38.013Z,99825.19
2023-01-30T02:11:09.601Z,99807.22
2023-01-30T02:13:37.628Z,99803.50
2023-01-30T02:16:06.469Z,99796.66
2023-01-30T02:18:37.327Z,99792.31
2023-01-30T02:21:19.525Z,99785.28
2023-01-30T02:24:35.430Z,99769.56
2023-01-30T02:27:18.595Z,99749.50
2023-01-30T02:30:06.474Z,99755.91
2023-01-30T02:32:39.204Z,99756.72
2023-01-30T02:35:16.929Z,99756.72
2023-01-30T02:37:58.586Z,99742.25
2023-01-30T02:40:39.457Z,99724.66
2023-01-30T02:43:15.777Z,99712.06
2023-01-30T02:45:50.934Z,99713.09
2023-01-30T02:48:23.422Z,99709.56
2023-01-30T02:50:57.059Z,99707.91
2023-01-30T02:53:24.394Z,99712.44
2023-01-30T02:55:51.256Z,99696.31
2023-01-30T02:58:21.577Z,99702.53
2023-01-30T03:01:14.529Z,99722.59
2023-01-30T03:04:00.783Z,99730.66
2023-01-30T03:06:43.534Z,99723.81
2023-01-30T03:09:18.713Z,99746.78
2023-01-30T03:11:52.416Z,99759.16
2023-01-30T03:14:26.238Z,99758.34
2023-01-30T03:16:56.474Z,99767.22
2023-01-30T03:19:25.044Z,99783.56
2023-01-30T03:21:51.898Z,99791.00
2023-01-30T03:24:19.344Z,99778.38
2023-01-30T03:26:51.124Z,99771.16
2023-01-30T03:29:18.254Z,99767.81
2023-01-30T03:31:45.320Z,99767.00
2023-01-30T03:34:12.407Z,99765.13
2023-01-30T03:36:41.253Z,99758.75
2023-01-30T03:39:08.492Z,99752.72
2023-01-30T03:41:35.394Z,99747.56
2023-01-30T03:44:03.080Z,99741.38
2023-01-30T03:46:30.107Z,99741.75
2023-01-30T03:48:56.985Z,99740.53
2023-01-30T03:51:23.931Z,99736.59
2023-01-30T03:53:52.168Z,99744.66
2023-01-30T03:56:19.059Z,99755.41
2023-01-30T03:58:45.964Z,99759.75
2023-01-30T04:01:30.241Z,99750.25
2023-01-30T04:03:57.192Z,99749.63
2023-01-30T04:06:24.702Z,99750.44
2023-01-30T04:08:54.115Z,99758.91
2023-01-30T04:11:32.986Z,99754.16
2023-01-30T04:13:59.872Z,99750.84
2023-01-30T04:16:27.512Z,99755.78
2023-01-30T04:19:29.712Z,99747.91
2023-01-30T04:21:56.716Z,99750.81
2023-01-30T04:24:24.915Z,99758.03
2023-01-30T04:26:52.091Z,99754.50
2023-01-30T04:29:19.296Z,99756.19
2023-01-30T04:31:49.051Z,99762.38
2023-01-30T04:34:22.252Z,99763.22
2023-01-30T04:36:49.469Z,99752.28
2023-01-30T04:39:17.267Z,99738.00
2023-01-30T04:41:45.554Z,99739.03
2023-01-30T04:44:12.399Z,99744.59
2023-01-30T04:46:57.645Z,99743.13
2023-01-30T04:49:24.615Z,99731.53
2023-01-30T04:51:51.525Z,99715.41
2023-01-30T04:54:18.517Z,99724.31
2023-01-30T04:56:46.696Z,99717.94
2023-01-30T04:59:13.651Z,99709.88
2023-01-30T05:01:43.768Z,99699.97
2023-01-30T05:04:10.701Z,99700.34
2023-01-30T05:06:37.578Z,99687.75
2023-01-30T05:09:04.520Z,99685.88
2023-01-30T05:11:32.417Z,99686.06
2023-01-30T05:14:00.810Z,99693.31
2023-01-30T05:16:27.917Z,99711.09
2023-01-30T05:18:54.784Z,99717.28
2023-01-30T05:21:25.441Z,99708.59
2023-01-30T05:23:53.444Z,99714.34
2023-01-30T05:26:20.487Z,99714.56
2023-01-30T05:28:51.684Z,99712.50
2023-01-30T05:31:20.174Z,99718.06
2023-01-30T05:33:48.775Z,99717.88
2023-01-30T05:36:17.494Z,99705.47
2023-01-30T05:38:45.052Z,99712.94
2023-01-30T05:41:13.993Z,99700.94
2023-01-30T05:43:41.117Z,99706.16
2023-01-30T05:46:09.936Z,99705.78
2023-01-30T05:48:38.402Z,99715.94
2023-01-30T05:51:05.636Z,99716.75
2023-01-30T05:53:35.137Z,99700.06
2023-01-30T05:56:05.075Z,99689.31
2023-01-30T05:58:33.119Z,99683.16
2023-01-30T06:01:01.114Z,99667.66
2023-01-30T06:03:28.175Z,99656.72
2023-01-30T06:05:56.621Z,99661.72
2023-01-30T06:08:23.752Z,99661.50
2023-01-30T06:10:50.760Z,99648.75
2023-01-30T06:13:17.902Z,99658.06
2023-01-30T06:15:44.866Z,99676.69
2023-01-30T06:18:11.819Z,99677.28
2023-01-30T06:20:38.761Z,99670.50
2023-01-30T06:23:08.588Z,99661.16
2023-01-30T06:25:35.401Z,99646.44
2023-01-30T06:28:02.248Z,99636.06
2023-01-30T06:30:29.196Z,99634.00
2023-01-30T06:32:56.043Z,99621.16
2023-01-30T06:35:22.904Z,99620.31
2023-01-30T06:37:49.746Z,99624.00
2023-01-30T06:40:18.724Z,99624.66
2023-01-30T06:42:46.353Z,99633.31
2023-01-30T06:45:14.280Z,99637.66
2023-01-30T06:47:48.477Z,99630.44
2023-01-30T06:50:17.874Z,99629.78
2023-01-30T06:52:46.220Z,99637.06
2023-01-30T06:55:15.325Z,99641.00
2023-01-30T06:57:44.249Z,99651.78
2023-01-30T07:00:13.961Z,99650.13
2023-01-30T07:02:40.992Z,99652.81
2023-01-30T07:05:09.429Z,99660.06
2023-01-30T07:07:36.347Z,99669.41
2023-01-30T07:10:08.940Z,99668.78
2023-01-30T07:12:36.923Z,99663.81
2023-01-30T07:15:06.807Z,99677.50
2023-01-30T07:17:33.779Z,99691.59
2023-01-30T07:20:00.650Z,99683.72
2023-01-30T07:22:27.551Z,99690.34
2023-01-30T07:24:54.484Z,99696.16
2023-01-30T07:27:21.383Z,99701.94
2023-01-30T07:29:48.205Z,99703.16
2023-01-30T07:32:19.995Z,99713.94
2023-01-30T07:34:47.365Z,99714.78
2023-01-30T07:37:14.731Z,99721.00
2023-01-30T07:39:41.975Z,99712.72
2023-01-30T07:42:08.981Z,99711.69
2023-01-30T07:44:35.924Z,99710.25
2023-01-30T07:47:02.871Z,99710.66
2023-01-30T07:49:31.169Z,99716.22
2023-01-30T07:51:58.025Z,99714.56
2023-01-30T07:54:24.864Z,99713.94
2023-01-30T07:56:51.683Z,99719.31
2023-01-30T07:59:18.650Z,99722.19
2023-01-30T08:01:45.454Z,99743.53
2023-01-30T08:04:12.340Z,99745.41
2023-01-30T08:06:40.855Z,99752.63
2023-01-30T08:09:08.097Z,99749.91
2023-01-30T08:11:35.227Z,99747.41
2023-01-30T08:14:02.322Z,99740.38
2023-01-30T08:16:29.296Z,99744.09
2023-01-30T08:18:56.568Z,99755.06
2023-01-30T08:21:23.464Z,99755.25
2023-01-30T08:23:51.669Z,99751.91
2023-01-30T08:26:18.601Z,99745.25
2023-01-30T08:28:45.499Z,99731.97
2023-01-30T08:31:14.023Z,99733.41
2023-01-30T08:33:41.039Z,99742.72
2023-01-30T08:36:08.741Z,99748.72
2023-01-30T08:38:35.775Z,99743.97
2023-01-30T08:41:07.567Z,99724.63
2023-01-30T08:43:34.938Z,99709.06
2023-01-30T08:46:02.101Z,99708.66
2023-01-30T08:48:34.134Z,99722.72
2023-01-30T08:51:06.888Z,99729.56
2023-01-30T08:53:33.741Z,99722.31
2023-01-30T08:56:00.595Z,99733.47
2023-01-30T08:58:28.900Z,99728.72
2023-01-30T09:00:55.867Z,99731.19
2023-01-30T09:03:22.760Z,99723.09
2023-01-30T09:05:54.996Z,99719.34
2023-01-30T09:08:21.922Z,99701.91
2023-01-30T09:10:48.843Z,99679.47
2023-01-30T09:13:15.738Z,99693.59
2023-01-30T09:15:45.461Z,99697.94
2023-01-30T09:18:12.492Z,99701.50
2023-01-30T09:20:39.344Z,99706.03
2023-01-30T09:23:06.208Z,99713.94
2023-01-30T09:25:33.107Z,99714.78
2023-01-30T09:28:00.053Z,99712.69
2023-01-30T09:30:27.089Z,99721.59
2023-01-30T09:32:55.402Z,99718.69
2023-01-30T09:35:22.341Z,99726.78
2023-01-30T09:37:49.697Z,99726.78
2023-01-30T09:40:18.908Z,99717.66
2023-01-30T09:43:04.587Z,99728.44
2023-01-30T09:45:43.366Z,99716.38
2023-01-30T09:48:19.573Z,99713.88
2023-01-30T09:51:06.825Z,99696.91
2023-01-30T09:53:44.004Z,99699.34
2023-01-30T09:56:11.528Z,99692.09
2023-01-30T09:58:46.159Z,99692.94
2023-01-30T10:01:24.187Z,99696.44
2023-01-30T10:04:07.027Z,99705.59
2023-01-30T10:06:41.921Z,99709.94
2023-01-30T10:09:17.342Z,99712.63
2023-01-30T10:11:56.365Z,99710.75
2023-01-30T10:14:52.225Z,99715.13
2023-01-30T10:17:37.653Z,99720.72
2023-01-30T10:20:29.728Z,99719.69
2023-01-30T10:23:06.080Z,99713.47
2023-01-30T10:25:37.927Z,99718.88
2023-01-30T10:28:12.121Z,99706.22
2023-01-30T10:30:39.632Z,99696.00
2023-01-30T10:33:15.837Z,99691.44
2023-01-30T10:35:44.796Z,99697.66
2023-01-30T10:38:17.447Z,99692.25
2023-01-30T10:40:51.866Z,99701.19
2023-01-30T10:43:26.021Z,99702.03
2023-01-30T10:46:02.885Z,99695.56
2023-01-30T10:48:51.726Z,99693.69
2023-01-30T10:51:49.573Z,99688.28
2023-01-30T10:54:23.078Z,99700.13
2023-01-30T10:56:58.168Z,99685.59
2023-01-30T10:59:34.948Z,99675.63
2023-01-30T11:02:11.863Z,99680.81
2023-01-30T11:04:47.704Z,99669.38
2023-01-30T11:07:16.455Z,99673.16
2023-01-30T11:09:45.612Z,99663.19
2023-01-30T11:12:13.330Z,99664.00
2023-01-30T11:14:54.431Z,99665.03
2023-01-30T11:17:28.273Z,99656.94
2023-01-30T11:19:56.751Z,99667.75
2023-01-30T11:22:27.162Z,99657.16
2023-01-30T11:25:03.827Z,99649.91
2023-01-30T11:27:32.594Z,99651.78
2023-01-30T11:30:15.026Z,99657.16
2023-01-30T11:32:43.831Z,99661.53
2023-01-30T11:35:29.926Z,99646.59
2023-01-30T11:38:11.979Z,99650.97
2023-01-30T11:40:40.806Z,99648.84
2023-01-30T11:43:13.568Z,99648.84
2023-01-30T11:45:43.905Z,99639.69
2023-01-30T11:48:32.795Z,99628.91
2023-01-30T11:51:05.245Z,99626.22
2023-01-30T11:53:37.995Z,99626.22
2023-01-30T11:56:11.618Z,99628.91
2023-01-30T11:58:40.810Z,99631.38
2023-01-30T12:01:09.948Z,99637.63
2023-01-30T12:03:44.633Z,99641.16
2023-01-30T12:06:11.793Z,99637.63
2023-01-30T12:08:42.809Z,99640.31
2023-01-30T12:11:26.606Z,99634.94
2023-01-30T12:13:55.243Z,99618.72
2023-01-30T12:16:26.830Z,99625.78
2023-01-30T12:19:02.356Z,99629.53
2023-01-30T12:21:40.731Z,99629.75
2023-01-30T12:24:20.885Z,99624.34
2023-01-30T12:26:53.593Z,99626.22
2023-01-30T12:29:28.163Z,99627.25
2023-01-30T12:32:06.223Z,99617.53
2023-01-30T12:34:33.182Z,99602.97
2023-01-30T12:37:09.811Z,99606.72
2023-01-30T12:39:53.839Z,99606.09
2023-01-30T12:42:40.544Z,99603.41
2023-01-30T12:45:22.590Z,99609.84
2023-01-30T12:48:14.867Z,99616.09
2023-01-30T12:50:56.830Z,99616.75
2023-01-30T12:53:31.499Z,99616.31
2023-01-30T12:56:22.420Z,99621.28
2023-01-30T12:58:54.006Z,99621.06
2023-01-30T13:01:29.542Z,99623.50
2023-01-30T13:04:05.103Z,99620.38
2023-01-30T13:06:46.865Z,99609.38
2023-01-30T13:09:32.940Z,99603.13
2023-01-30T13:12:08.435Z,99595.88
2023-01-30T13:14:43.641Z,99602.69
2023-01-30T13:17:24.631Z,99601.63
2023-01-30T13:20:04.241Z,99591.69
2023-01-30T13:22:38.594Z,99588.75
2023-01-30T13:25:18.524Z,99586.06
2023-01-30T13:27:56.362Z,99584.19
2023-01-30T13:30:27.647Z,99595.59
2023-01-30T13:32:58.553Z,99596.41
2023-01-30T13:35:31.717Z,99584.56
2023-01-30T13:38:00.372Z,99587.84
2023-01-30T13:40:29.849Z,99582.44
2023-01-30T13:43:02.338Z,99585.16
2023-01-30T13:45:32.349Z,99592.00
2023-01-30T13:48:13.651Z,99607.38
2023-01-30T13:50:58.578Z,99603.63
2023-01-30T13:53:30.311Z,99612.56
2023-01-30T13:56:02.671Z,99616.06
2023-01-30T13:58:44.224Z,99616.06
2023-01-30T14:01:12.838Z,99615.84
2023-01-30T14:03:40.467Z,99616.69
2023-01-30T14:06:36.444Z,99621.03
2023-01-30T14:09:18.171Z,99620.19
2023-01-30T14:11:49.780Z,99621.03
2023-01-30T14:14:32.771Z,99629.75
2023-01-30T14:17:10.208Z,99618.09
2023-01-30T14:19:56.870Z,99616.25
2023-01-30T14:22:28.063Z,99613.53
2023-01-30T14:25:33.721Z,99631.38
2023-01-30T14:28:48.683Z,99635.72
2023-01-30T14:31:48.379Z,99642.19
2023-01-30T14:34:49.550Z,99648.41
2023-01-30T14:37:45.153Z,99640.53
2023-01-30T14:40:33.989Z,99649.66
2023-01-30T14:43:40.641Z,99650.50
2023-01-30T14:46:32.520Z,99656.75
2023-01-30T14:49:05.265Z,99647.59
2023-01-30T14:51:35.768Z,99654.63
2023-01-30T14:54:07.362Z,99657.13
2023-01-30T14:56:46.496Z,99658.75
2023-01-30T14:59:25.065Z,99661.25
2023-01-30T15:02:02.845Z,99667.69
2023-01-30T15:04:34.049Z,99673.31
2023-01-30T15:07:06.105Z,99673.69
2023-01-30T15:09:33.631Z,99674.53
2023-01-30T15:12:19.557Z,99674.53
2023-01-30T15:14:55.146Z,99681.78
2023-01-30T15:17:32.520Z,99686.38
2023-01-30T15:20:13.379Z,99707.78
2023-01-30T15:22:53.808Z,99706.72
2023-01-30T15:25:31.815Z,99716.91
2023-01-30T15:28:11.157Z,99723.72
2023-01-30T15:30:57.106Z,99728.91
2023-01-30T15:33:31.495Z,99729.53
2023-01-30T15:36:00.813Z,99729.75
2023-01-30T15:38:31.228Z,99733.88
2023-01-30T15:41:01.176Z,99740.13
2023-01-30T15:44:07.712Z,99739.06
2023-01-30T15:46:44.972Z,99754.66
2023-01-30T15:49:29.305Z,99742.41
2023-01-30T15:52:01.223Z,99750.72
2023-01-30T15:54:28.211Z,99749.94
2023-01-30T15:56:58.597Z,99754.28
2023-01-30T15:59:32.765Z,99758.84
2023-01-30T16:02:02.491Z,99747.44
2023-01-30T16:04:30.129Z,99758.03
2023-01-30T16:06:58.337Z,99762.44
2023-01-30T16:09:28.542Z,99767.66
2023-01-30T16:11:57.319Z,99776.56
2023-01-30T16:14:24.220Z,99791.13
2023-01-30T16:16:55.852Z,99801.34
2023-01-30T16:19:26.761Z,99795.09
2023-01-30T16:21:56.242Z,99795.94
2023-01-30T16:24:27.883Z,99804.84
2023-01-30T16:27:00.852Z,99796.53
2023-01-30T16:29:30.766Z,99800.28
2023-01-30T16:31:57.944Z,99806.72
2023-01-30T16:34:29.538Z,99810.47
2023-01-30T16:37:00.813Z,99804.25
2023-01-30T16:39:33.770Z,99812.13
2023-01-30T16:42:02.448Z,99810.47
2023-01-30T16:44:30.685Z,99813.78
2023-01-30T16:47:01.206Z,99823.53
2023-01-30T16:49:41.698Z,99826.22
2023-01-30T16:52:17.121Z,99832.47
2023-01-30T16:54:48.390Z,99839.31
2023-01-30T16:57:35.065Z,99834.50
2023-01-30T17:00:04.975Z,99842.81
2023-01-30T17:02:35.260Z,99839.31
2023-01-30T17:05:18.741Z,99842.00
2023-01-30T17:07:45.983Z,99839.31
2023-01-30T17:10:48.348Z,99838.47
2023-01-30T17:14:35.975Z,99850.78
2023-01-30T17:17:03.869Z,99856.34
2023-01-30T17:19:30.777Z,99853.84
2023-01-30T17:21:59.561Z,99860.47
2023-01-30T17:24:26.810Z,99860.88
2023-01-30T17:26:59.151Z,99874.16
2023-01-30T17:29:41.821Z,99872.25
2023-01-30T17:32:13.251Z,99883.06
2023-01-30T17:34:41.400Z,99886.59
2023-01-30T17:37:14.370Z,99892.22
2023-01-30T17:39:41.264Z,99891.16
2023-01-30T17:42:10.055Z,99893.66
2023-01-30T17:44:36.986Z,99897.63
2023-01-30T17:47:04.217Z,99901.59
2023-01-30T17:49:32.556Z,99909.69
2023-01-30T17:52:00.139Z,99908.03
2023-01-30T17:54:27.224Z,99896.41
2023-01-30T17:56:59.024Z,99908.47
2023-01-30T17:59:26.303Z,99917.41
2023-01-30T18:01:53.942Z,99926.31
2023-01-30T18:04:21.270Z,99930.06
2023-01-30T18:06:53.343Z,99924.66
2023-01-30T18:09:22.065Z,99928.41
2023-01-30T18:11:49.561Z,99931.13
2023-01-30T18:14:17.241Z,99932.97
2023-01-30T18:16:44.390Z,99942.97
2023-01-30T18:19:13.116Z,99937.56
2023-01-30T18:21:42.805Z,99946.69
2023-01-30T18:24:11.221Z,99942.56
2023-01-30T18:26:38.091Z,99942.56
2023-01-30T18:29:04.940Z,99944.84
2023-01-30T18:31:32.104Z,99950.25
2023-01-30T18:33:58.991Z,99945.06
2023-01-30T18:36:25.836Z,99944.47
2023-01-30T18:38:53.625Z,99946.34
2023-01-30T18:41:23.219Z,99957.13
2023-01-30T18:43:54.497Z,99949.25
2023-01-30T18:46:21.520Z,99953.78
2023-01-30T18:48:48.385Z,99940.53
2023-01-30T18:51:17.964Z,99952.16
2023-01-30T18:53:46.763Z,99951.53
2023-01-30T18:56:15.579Z,99951.75
2023-01-30T18:58:45.022Z,99945.53
2023-01-30T19:01:14.239Z,99946.34
2023-01-30T19:03:41.749Z,99950.09
2023-01-30T19:06:10.730Z,99953.81
2023-01-30T19:08:38.621Z,99952.38
2023-01-30T19:11:26.048Z,99958.41
2023-01-30T19:13:55.426Z,99958.22
2023-01-30T19:16:23.454Z,99975.22
2023-01-30T19:18:50.670Z,99966.06
2023-01-30T19:21:18.170Z,99974.16
2023-01-30T19:23:45.281Z,99972.50
2023-01-30T19:26:12.371Z,99970.88
2023-01-30T19:28:39.335Z,99976.25
2023-01-30T19:31:09.780Z,99978.13
2023-01-30T19:33:36.701Z,99981.66
2023-01-30T19:36:10.653Z,99989.75
2023-01-30T19:38:37.593Z,99986.44
2023-01-30T19:41:05.094Z,99990.19
2023-01-30T19:43:31.946Z,99992.06
2023-01-30T19:46:00.351Z,99987.47
2023-01-30T19:48:28.611Z,99982.06
2023-01-30T19:50:55.429Z,99987.47
2023-01-30T19:53:22.296Z,99977.94
2023-01-30T19:55:49.939Z,99983.13
2023-01-30T19:58:17.020Z,99975.44
2023-01-30T20:00:43.858Z,99979.78
2023-01-30T20:03:13.042Z,99987.09
2023-01-30T20:05:41.526Z,99993.53
2023-01-30T20:08:09.686Z,100003.50
2023-01-30T20:10:39.269Z,100012.44
2023-01-30T20:13:06.189Z,100005.13
2023-01-30T20:15:33.041Z,100005.34
2023-01-30T20:17:59.807Z,100004.53
2023-01-30T20:20:26.746Z,100015.34
2023-01-30T20:22:54.922Z,100009.94
2023-01-30T20:25:21.811Z,100007.22
2023-01-30T20:27:48.671Z,100007.44
2023-01-30T20:30:16.356Z,100016.34
2023-01-30T20:32:43.305Z,100010.16
2023-01-30T20:35:10.811Z,100012.22
2023-01-30T20:37:37.638Z,100016.16
2023-01-30T20:40:07.381Z,100014.13
2023-01-30T20:42:34.215Z,100015.34
2023-01-30T20:45:01.030Z,100030.25
2023-01-30T20:47:27.899Z,100025.31
2023-01-30T20:49:55.259Z,100027.78
2023-01-30T20:52:22.314Z,100029.47
2023-01-30T20:54:49.147Z,100028.00
2023-01-30T20:57:17.648Z,100034.03
2023-01-30T20:59:45.214Z,100042.53
2023-01-30T21:02:12.218Z,100041.28
2023-01-30T21:04:39.508Z,100041.47
2023-01-30T21:07:06.368Z,100041.91
2023-01-30T21:09:33.239Z,100039.63
2023-01-30T21:12:00.036Z,100040.88
2023-01-30T21:14:29.116Z,100040.44
2023-01-30T21:16:55.972Z,100048.13
2023-01-30T21:19:22.897Z,100053.72
2023-01-30T21:21:53.426Z,100048.72
2023-01-30T21:24:22.420Z,100049.78
2023-01-30T21:26:50.066Z,100056.41
2023-01-30T21:29:19.701Z,100053.31
2023-01-30T21:31:48.091Z,100060.75
2023-01-30T21:34:14.991Z,100059.91
2023-01-30T21:36:42.004Z,100059.31
2023-01-30T21:39:31.903Z,100066.94
2023-01-30T21:42:17.828Z,100066.31
2023-01-30T21:44:44.664Z,100075.84
2023-01-30T21:47:12.834Z,100076.25
2023-01-30T21:49:41.650Z,100081.03
2023-01-30T21:52:08.511Z,100082.06
2023-01-30T21:54:35.398Z,100088.47
2023-01-30T21:57:02.483Z,100096.97
2023-01-30T21:59:29.369Z,100096.34
2023-01-30T22:01:56.318Z,100101.50
2023-01-30T22:04:24.668Z,100102.09
2023-01-30T22:06:51.879Z,100095.25
2023-01-30T22:09:18.709Z,100098.34
2023-01-30T22:11:46.238Z,100100.63
2023-01-30T22:14:14.163Z,100099.59
2023-01-30T22:16:41.423Z,100109.34
2023-01-30T22:19:09.028Z,100113.25
2023-01-30T22:21:39.902Z,100110.97
2023-01-30T22:24:09.621Z,100105.78
2023-01-30T22:26:36.791Z,100107.22
2023-01-30T22:29:05.858Z,100111.78
2023-01-30T22:31:35.409Z,100099.34
2023-01-30T22:34:03.981Z,100104.31
2023-01-30T22:36:33.242Z,100098.47
2023-01-30T22:39:02.768Z,100097.66
2023-01-30T22:41:32.573Z,100097.00
2023-01-30T22:44:00.531Z,100097.22
2023-01-30T22:46:32.992Z,100101.13
2023-01-30T22:49:00.848Z,100093.25
2023-01-30T22:51:29.718Z,100100.53
2023-01-30T22:53:58.191Z,100105.44
2023-01-30T22:56:28.851Z,100111.88
2023-01-30T22:58:56.478Z,100108.53
2023-01-30T23:01:25.000Z,100107.88
2023-01-30T23:03:55.145Z,100100.84
2023-01-30T23:06:22.931Z,100090.47
2023-01-30T23:08:50.470Z,100099.59
2023-01-30T23:11:19.613Z,100087.13
2023-01-30T23:13:49.695Z,100097.09
2023-01-30T23:16:18.264Z,100095.63
2023-01-30T23:18:58.815Z,100097.47
2023-01-30T23:21:27.988Z,100095.38
2023-01-30T23:23:56.757Z,100097.44
2023-01-30T23:26:27.802Z,100100.13
2023-01-30T23:28:57.067Z,100101.97
2023-01-30T23:31:25.686Z,100105.72
2023-01-30T23:33:54.459Z,100114.81
2023-01-30T23:36:21.509Z,100130.31
2023-01-30T23:38:48.980Z,100124.31
2023-01-30T23:41:17.917Z,100132.59
2023-01-30T23:43:45.745Z,100142.50
2023-01-30T23:46:17.122Z,100136.31
2023-01-30T23:48:44.534Z,100128.44
2023-01-30T23:51:11.570Z,100126.97
2023-01-30T23:53:38.663Z,100125.31
2023-01-30T23:56:06.792Z,100137.09
2023-01-30T23:58:34.100Z,100135.25
